createdAt,value
2022-10-27T00:00:33.607Z,99305.63
2022-10-27T00:03:00.227Z,99302.00
2022-10-27T00:05:26.890Z,99306.47
2022-10-27T00:07:53.761Z,99294.16
2022-10-27T00:10:20.369Z,99292.69
2022-10-27T00:12:46.889Z,99294.28
2022-10-27T00:15:14.353Z,99293.91
2022-10-27T00:17:41.141Z,99295.81
2022-10-27T00:20:08.681Z,99304.75
2022-10-27T00:22:35.216Z,99302.94
2022-10-27T00:25:01.894Z,99305.47
2022-10-27T00:27:28.564Z,99310.28
2022-10-27T00:29:55.004Z,99308.34
2022-10-27T00:32:21.515Z,99314.09
2022-10-27T00:34:47.919Z,99316.09
2022-10-27T00:37:14.499Z,99324.25
2022-10-27T00:39:40.881Z,99322.38
2022-10-27T00:42:12.042Z,99335.13
2022-10-27T00:44:41.125Z,99328.97
2022-10-27T00:47:19.134Z,99327.28
2022-10-27T00:49:57.461Z,99326.25
2022-10-27T00:52:27.461Z,99326.91
2022-10-27T00:54:57.097Z,99325.56
2022-10-27T00:57:24.152Z,99327.75
2022-10-27T00:59:50.577Z,99327.13
2022-10-27T01:02:17.396Z,99333.72
2022-10-27T01:04:50.885Z,99331.09
2022-10-27T01:07:19.418Z,99334.91
2022-10-27T01:09:46.814Z,99338.44
2022-10-27T01:12:13.226Z,99330.69
2022-10-27T01:14:39.939Z,99329.69
2022-10-27T01:17:40.121Z,99330.44
2022-10-27T01:20:27.737Z,99327.25
2022-10-27T01:23:24.830Z,99325.34
2022-10-27T01:26:21.650Z,99326.09
2022-10-27T01:29:03.806Z,99329.53
2022-10-27T01:31:36.417Z,99322.34
2022-10-27T01:34:21.513Z,99323.66
2022-10-27T01:37:13.650Z,99325.72
2022-10-27T01:39:53.258Z,99325.72
2022-10-27T01:42:32.582Z,99329.34
2022-10-27T01:45:00.610Z,99317.41
2022-10-27T01:47:27.421Z,99325.06
2022-10-27T01:49:56.756Z,99319.25
2022-10-27T01:52:43.533Z,99320.88
2022-10-27T01:55:47.263Z,99324.28
2022-10-27T01:58:39.772Z,99321.97
2022-10-27T02:01:43.228Z,99318.78
2022-10-27T02:04:18.405Z,99332.38
2022-10-27T02:06:55.838Z,99329.13
2022-10-27T02:09:33.899Z,99325.00
2022-10-27T02:12:04.639Z,99326.69
2022-10-27T02:14:31.581Z,99335.22
2022-10-27T02:16:59.546Z,99333.44
2022-10-27T02:19:30.173Z,99345.34
2022-10-27T02:22:00.643Z,99341.09
2022-10-27T02:24:28.030Z,99338.75
2022-10-27T02:27:17.863Z,99341.41
2022-10-27T02:29:47.837Z,99347.16
2022-10-27T02:32:18.801Z,99343.66
2022-10-27T02:34:47.074Z,99341.41
2022-10-27T02:37:25.440Z,99353.31
2022-10-27T02:39:51.973Z,99348.75
2022-10-27T02:42:18.364Z,99345.63
2022-10-27T02:44:44.741Z,99357.28
2022-10-27T02:47:11.103Z,99347.94
2022-10-27T02:49:37.476Z,99356.13
2022-10-27T02:52:04.718Z,99359.81
2022-10-27T02:54:31.738Z,99354.66
2022-10-27T02:56:58.790Z,99359.31
2022-10-27T02:59:25.532Z,99354.97
2022-10-27T03:01:52.145Z,99345.63
2022-10-27T03:04:18.678Z,99344.69
2022-10-27T03:06:45.085Z,99344.69
2022-10-27T03:09:11.457Z,99342.31
2022-10-27T03:11:39.555Z,99335.53
2022-10-27T03:14:07.970Z,99331.19
2022-10-27T03:16:34.358Z,99333.31
2022-10-27T03:19:00.749Z,99339.47
2022-10-27T03:21:27.096Z,99339.63
2022-10-27T03:23:53.477Z,99333.25
2022-10-27T03:26:19.874Z,99329.56
2022-10-27T03:28:46.242Z,99333.47
2022-10-27T03:31:12.633Z,99326.91
2022-10-27T03:33:38.999Z,99330.50
2022-10-27T03:36:05.780Z,99335.16
2022-10-27T03:38:32.258Z,99343.41
2022-10-27T03:40:58.646Z,99340.66
2022-10-27T03:43:25.171Z,99336.28
2022-10-27T03:45:55.075Z,99353.69
2022-10-27T03:48:23.645Z,99342.56
2022-10-27T03:50:51.067Z,99340.97
2022-10-27T03:53:18.069Z,99338.66
2022-10-27T03:55:44.923Z,99338.53
2022-10-27T03:58:16.829Z,99340.88
2022-10-27T04:00:44.573Z,99343.22
2022-10-27T04:03:11.437Z,99343.13
2022-10-27T04:05:37.818Z,99342.38
2022-10-27T04:08:04.285Z,99351.25
2022-10-27T04:10:30.667Z,99349.16
2022-10-27T04:12:57.563Z,99354.78
2022-10-27T04:15:26.520Z,99356.25
2022-10-27T04:17:57.595Z,99353.28
2022-10-27T04:20:24.585Z,99361.00
2022-10-27T04:22:51.604Z,99357.19
2022-10-27T04:25:18.353Z,99357.91
2022-10-27T04:27:44.825Z,99357.59
2022-10-27T04:30:11.712Z,99360.38
2022-10-27T04:32:38.211Z,99364.19
2022-10-27T04:35:05.918Z,99363.56
2022-10-27T04:37:34.016Z,99361.13
2022-10-27T04:40:00.796Z,99356.78
2022-10-27T04:42:27.188Z,99352.56
2022-10-27T04:44:53.672Z,99349.91
2022-10-27T04:47:20.056Z,99345.88
2022-10-27T04:49:46.616Z,99341.41
2022-10-27T04:54:44.902Z,99349.56
2022-10-27T04:57:11.502Z,99346.72
2022-10-27T04:59:37.929Z,99348.72
2022-10-27T05:02:04.506Z,99353.19
2022-10-27T05:04:30.904Z,99356.25
2022-10-27T05:06:57.415Z,99351.78
2022-10-27T05:09:23.785Z,99349.06
2022-10-27T05:11:50.260Z,99350.09
2022-10-27T05:14:16.712Z,99350.41
2022-10-27T05:16:43.064Z,99349.03
2022-10-27T05:19:09.423Z,99353.41
2022-10-27T05:21:35.843Z,99345.66
2022-10-27T05:24:02.303Z,99346.63
2022-10-27T05:26:29.429Z,99345.47
2022-10-27T05:28:57.370Z,99350.22
2022-10-27T05:31:23.739Z,99352.03
2022-10-27T05:33:50.172Z,99350.53
2022-10-27T05:36:16.588Z,99358.16
2022-10-27T05:38:45.803Z,99361.00
2022-10-27T05:41:12.190Z,99355.63
2022-10-27T05:43:41.527Z,99346.50
2022-10-27T05:46:09.025Z,99349.91
2022-10-27T05:48:38.209Z,99340.03
2022-10-27T05:51:08.074Z,99333.47
2022-10-27T05:53:34.435Z,99335.81
2022-10-27T05:56:01.018Z,99337.25
2022-10-27T05:58:27.366Z,99339.41
2022-10-27T06:00:58.750Z,99335.16
2022-10-27T06:03:26.005Z,99340.16
2022-10-27T06:05:53.440Z,99337.16
2022-10-27T06:08:20.709Z,99328.25
2022-10-27T06:10:48.008Z,99334.63
2022-10-27T06:13:14.749Z,99336.66
2022-10-27T06:18:11.325Z,99327.06
2022-10-27T06:20:37.743Z,99327.78
2022-10-27T06:23:05.714Z,99325.66
2022-10-27T06:25:32.120Z,99320.25
2022-10-27T06:27:58.703Z,99327.91
2022-10-27T06:30:25.191Z,99331.84
2022-10-27T06:32:52.003Z,99330.31
2022-10-27T06:35:19.645Z,99336.84
2022-10-27T06:37:46.814Z,99338.44
2022-10-27T06:40:16.363Z,99343.81
2022-10-27T06:43:01.702Z,99346.34
2022-10-27T06:45:29.362Z,99335.78
2022-10-27T06:47:58.068Z,99339.03
2022-10-27T06:50:24.542Z,99347.84
2022-10-27T06:52:51.809Z,99354.31
2022-10-27T06:55:19.093Z,99367.66
2022-10-27T06:57:45.464Z,99365.91
2022-10-27T07:00:12.626Z,99370.94
2022-10-27T07:02:39.104Z,99371.56
2022-10-27T07:05:07.553Z,99376.28
2022-10-27T07:07:34.785Z,99375.34
2022-10-27T07:10:01.178Z,99378.38
2022-10-27T07:12:27.811Z,99381.31
2022-10-27T07:14:54.281Z,99379.91
2022-10-27T07:19:52.154Z,99395.00
2022-10-27T07:22:18.662Z,99389.69
2022-10-27T07:24:45.068Z,99395.22
2022-10-27T07:27:11.470Z,99382.56
2022-10-27T07:29:37.922Z,99388.81
2022-10-27T07:32:04.628Z,99377.44
2022-10-27T07:34:31.013Z,99378.94
2022-10-27T07:36:57.397Z,99385.66
2022-10-27T07:39:23.751Z,99385.16
2022-10-27T07:41:50.115Z,99381.72
2022-10-27T07:44:16.729Z,99382.91
2022-10-27T07:46:43.230Z,99380.09
2022-10-27T07:49:09.622Z,99393.56
2022-10-27T07:51:36.075Z,99384.63
2022-10-27T07:54:02.612Z,99384.38
2022-10-27T07:56:29.079Z,99381.06
2022-10-27T07:58:55.486Z,99373.06
2022-10-27T08:01:22.022Z,99373.81
2022-10-27T08:03:51.120Z,99372.91
2022-10-27T08:06:17.954Z,99378.28
2022-10-27T08:08:44.433Z,99371.00
2022-10-27T08:11:10.827Z,99374.75
2022-10-27T08:13:37.182Z,99377.16
2022-10-27T08:16:03.636Z,99368.41
2022-10-27T08:18:30.003Z,99372.84
2022-10-27T08:20:56.465Z,99371.13
2022-10-27T08:23:25.508Z,99370.63
2022-10-27T08:25:52.844Z,99378.88
2022-10-27T08:28:19.388Z,99380.84
2022-10-27T08:30:52.316Z,99382.06
2022-10-27T08:33:22.488Z,99363.06
2022-10-27T08:35:50.607Z,99365.44
2022-10-27T08:38:18.319Z,99373.31
2022-10-27T08:41:07.745Z,99365.94
2022-10-27T08:43:46.001Z,99362.47
2022-10-27T08:46:31.041Z,99365.34
2022-10-27T08:49:05.279Z,99365.53
2022-10-27T08:51:35.060Z,99357.06
2022-10-27T08:54:04.385Z,99363.56
2022-10-27T08:56:39.213Z,99357.41
2022-10-27T08:59:05.916Z,99358.03
2022-10-27T09:01:49.820Z,99352.41
2022-10-27T09:04:28.870Z,99349.78
2022-10-27T09:07:16.721Z,99341.91
2022-10-27T09:09:52.410Z,99343.41
2022-10-27T09:12:26.536Z,99336.19
2022-10-27T09:15:15.813Z,99329.84
2022-10-27T09:17:49.047Z,99331.22
2022-10-27T09:20:35.237Z,99336.16
2022-10-27T09:23:06.786Z,99328.69
2022-10-27T09:25:38.379Z,99327.00
2022-10-27T09:28:05.911Z,99329.94
2022-10-27T09:30:35.406Z,99327.41
2022-10-27T09:33:01.845Z,99330.66
2022-10-27T09:35:31.626Z,99324.09
2022-10-27T09:37:59.636Z,99314.22
2022-10-27T09:40:28.752Z,99312.22
2022-10-27T09:42:56.604Z,99314.31
2022-10-27T09:45:25.457Z,99314.03
2022-10-27T09:47:56.519Z,99318.75
2022-10-27T09:50:26.216Z,99318.94
2022-10-27T09:52:55.141Z,99320.94
2022-10-27T09:55:21.849Z,99311.75
2022-10-27T09:57:50.046Z,99315.69
2022-10-27T10:00:16.740Z,99313.16
2022-10-27T10:02:54.514Z,99302.09
2022-10-27T10:05:27.047Z,99304.84
2022-10-27T10:08:16.674Z,99313.31
2022-10-27T10:11:02.581Z,99308.44
2022-10-27T10:13:30.923Z,99304.22
2022-10-27T10:16:12.797Z,99300.28
2022-10-27T10:18:41.126Z,99300.56
2022-10-27T10:21:10.714Z,99304.28
2022-10-27T10:23:57.874Z,99300.06
2022-10-27T10:26:29.532Z,99296.88
2022-10-27T10:29:06.928Z,99296.16
2022-10-27T10:31:33.545Z,99299.63
2022-10-27T10:34:05.012Z,99288.38
2022-10-27T10:36:39.776Z,99286.78
2022-10-27T10:39:29.936Z,99282.88
2022-10-27T10:42:17.531Z,99280.22
2022-10-27T10:44:47.988Z,99281.25
2022-10-27T10:47:29.544Z,99280.59
2022-10-27T10:50:02.113Z,99273.75
2022-10-27T10:52:38.192Z,99275.19
2022-10-27T10:55:18.283Z,99271.63
2022-10-27T10:57:46.332Z,99272.25
2022-10-27T11:00:17.796Z,99263.09
2022-10-27T11:02:59.253Z,99256.19
2022-10-27T11:05:32.003Z,99251.66
2022-10-27T11:07:59.143Z,99256.56
2022-10-27T11:10:28.208Z,99251.69
2022-10-27T11:13:00.432Z,99248.31
2022-10-27T11:15:42.724Z,99246.84
2022-10-27T11:18:12.137Z,99240.63
2022-10-27T11:20:38.785Z,99234.91
2022-10-27T11:23:28.412Z,99236.34
2022-10-27T11:25:58.361Z,99231.88
2022-10-27T11:28:44.566Z,99228.13
2022-10-27T11:31:24.352Z,99222.69
2022-10-27T11:34:16.883Z,99230.28
2022-10-27T11:36:59.343Z,99215.56
2022-10-27T11:39:43.627Z,99212.41
2022-10-27T11:42:30.500Z,99210.56
2022-10-27T11:45:35.358Z,99214.84
2022-10-27T11:48:13.407Z,99212.94
2022-10-27T11:50:53.679Z,99206.16
2022-10-27T11:53:20.273Z,99203.94
2022-10-27T11:56:18.805Z,99200.53
2022-10-27T11:58:51.945Z,99194.31
2022-10-27T12:01:49.028Z,99195.28
2022-10-27T12:04:39.947Z,99193.00
2022-10-27T12:07:28.758Z,99194.13
2022-10-27T12:10:10.355Z,99188.06
2022-10-27T12:12:44.885Z,99186.13
2022-10-27T12:15:35.586Z,99192.53
2022-10-27T12:18:13.443Z,99204.72
2022-10-27T12:20:51.709Z,99198.09
2022-10-27T12:23:24.409Z,99194.66
2022-10-27T12:26:11.774Z,99203.69
2022-10-27T12:28:38.762Z,99200.19
2022-10-27T12:31:12.512Z,99195.34
2022-10-27T12:33:48.066Z,99202.94
2022-10-27T12:36:20.531Z,99198.44
2022-10-27T12:38:58.908Z,99189.41
2022-10-27T12:41:31.675Z,99198.38
2022-10-27T12:44:43.164Z,99199.22
2022-10-27T12:47:35.991Z,99188.69
2022-10-27T12:50:29.453Z,99193.81
2022-10-27T12:53:13.087Z,99181.13
2022-10-27T12:55:53.365Z,99177.75
2022-10-27T12:58:52.770Z,99180.59
2022-10-27T13:01:39.342Z,99164.38
2022-10-27T13:04:20.724Z,99167.22
2022-10-27T13:07:16.395Z,99171.13
2022-10-27T13:09:54.435Z,99169.34
2022-10-27T13:12:28.195Z,99158.06
2022-10-27T13:15:11.791Z,99163.69
2022-10-27T13:17:57.099Z,99148.09
2022-10-27T13:20:55.111Z,99150.53
2022-10-27T13:23:34.528Z,99152.28
2022-10-27T13:26:20.306Z,99155.13
2022-10-27T13:28:56.273Z,99155.88
2022-10-27T13:31:24.510Z,99156.78
2022-10-27T13:34:09.503Z,99154.47
2022-10-27T13:36:37.447Z,99151.19
2022-10-27T13:39:16.400Z,99153.78
2022-10-27T13:41:56.010Z,99147.59
2022-10-27T13:44:39.699Z,99154.03
2022-10-27T13:47:12.135Z,99149.84
2022-10-27T13:49:41.383Z,99144.13
2022-10-27T13:52:16.846Z,99150.06
2022-10-27T13:54:58.375Z,99140.94
2022-10-27T13:58:00.617Z,99147.88
2022-10-27T14:01:05.090Z,99140.47
2022-10-27T14:06:09.990Z,99146.31
2022-10-27T14:08:48.931Z,99150.47
2022-10-27T14:11:24.939Z,99157.63
2022-10-27T14:13:55.831Z,99149.69
2022-10-27T14:16:26.591Z,99153.41
2022-10-27T14:19:12.510Z,99154.44
2022-10-27T14:21:48.922Z,99161.50
2022-10-27T14:24:21.250Z,99146.56
2022-10-27T14:26:47.759Z,99152.19
2022-10-27T14:29:23.776Z,99154.03
2022-10-27T14:31:50.275Z,99149.97
2022-10-27T14:34:22.528Z,99142.56
2022-10-27T14:36:49.978Z,99146.25
2022-10-27T14:39:22.417Z,99137.50
2022-10-27T14:41:50.529Z,99142.44
2022-10-27T14:44:27.418Z,99141.38
2022-10-27T14:47:00.028Z,99142.38
2022-10-27T14:49:37.235Z,99148.78
2022-10-27T14:52:08.129Z,99143.50
2022-10-27T14:54:34.623Z,99134.78
2022-10-27T14:57:28.942Z,99132.28
2022-10-27T14:59:55.363Z,99129.44
2022-10-27T15:02:23.145Z,99131.78
2022-10-27T15:04:49.573Z,99141.09
2022-10-27T15:07:20.073Z,99136.19
2022-10-27T15:09:52.783Z,99135.00
2022-10-27T15:12:21.225Z,99133.25
2022-10-27T15:14:48.125Z,99131.84
2022-10-27T15:17:23.220Z,99136.84
2022-10-27T15:19:56.436Z,99138.38
2022-10-27T15:22:23.855Z,99133.31
2022-10-27T15:24:50.737Z,99133.50
2022-10-27T15:27:17.729Z,99138.00
2022-10-27T15:29:46.027Z,99130.66
2022-10-27T15:32:21.882Z,99134.44
2022-10-27T15:34:49.126Z,99132.03
2022-10-27T15:37:26.238Z,99137.91
2022-10-27T15:39:54.021Z,99141.34
2022-10-27T15:42:23.914Z,99142.31
2022-10-27T15:44:50.788Z,99139.53
2022-10-27T15:47:42.705Z,99144.94
2022-10-27T15:50:24.389Z,99142.91
2022-10-27T15:52:54.035Z,99147.91
2022-10-27T15:55:23.584Z,99145.78
2022-10-27T15:57:50.487Z,99141.78
2022-10-27T16:00:24.756Z,99148.13
2022-10-27T16:02:59.306Z,99142.03
2022-10-27T16:05:31.611Z,99136.22
2022-10-27T16:07:59.401Z,99138.81
2022-10-27T16:10:27.937Z,99143.72
2022-10-27T16:12:55.693Z,99135.44
2022-10-27T16:15:25.229Z,99140.28
2022-10-27T16:17:54.770Z,99143.44
2022-10-27T16:20:33.891Z,99147.34
2022-10-27T16:23:01.455Z,99146.50
2022-10-27T16:25:30.377Z,99150.97
2022-10-27T16:27:57.510Z,99147.44
2022-10-27T16:30:23.977Z,99148.69
2022-10-27T16:33:04.169Z,99148.38
2022-10-27T16:35:33.978Z,99151.69
2022-10-27T16:38:01.129Z,99147.53
2022-10-27T16:40:27.961Z,99145.44
2022-10-27T16:42:58.147Z,99148.13
2022-10-27T16:45:24.743Z,99137.16
2022-10-27T16:47:52.479Z,99146.13
2022-10-27T16:50:19.340Z,99148.19
2022-10-27T16:52:51.701Z,99150.06
2022-10-27T16:55:18.134Z,99153.47
2022-10-27T16:57:48.744Z,99154.72
2022-10-27T17:00:16.630Z,99149.53
2022-10-27T17:02:43.013Z,99147.19
2022-10-27T17:05:09.620Z,99155.78
2022-10-27T17:07:39.223Z,99150.84
2022-10-27T17:10:06.406Z,99157.63
2022-10-27T17:12:33.034Z,99161.97
2022-10-27T17:14:59.387Z,99159.09
2022-10-27T17:17:25.772Z,99152.31
2022-10-27T17:19:52.225Z,99161.81
2022-10-27T17:22:18.617Z,99156.13
2022-10-27T17:24:45.023Z,99159.50
2022-10-27T17:27:11.652Z,99152.59
2022-10-27T17:29:38.106Z,99143.34
2022-10-27T17:32:04.643Z,99142.69
2022-10-27T17:34:32.130Z,99153.97
2022-10-27T17:36:59.323Z,99151.94
2022-10-27T17:39:25.681Z,99160.84
2022-10-27T17:41:52.067Z,99163.34
2022-10-27T17:44:18.658Z,99163.19
2022-10-27T17:46:45.067Z,99156.78
2022-10-27T17:49:11.488Z,99149.38
2022-10-27T17:51:38.059Z,99155.78
2022-10-27T17:54:04.523Z,99153.97
2022-10-27T17:56:33.437Z,99165.09
2022-10-27T17:59:00.076Z,99172.59
2022-10-27T18:01:31.901Z,99175.09
2022-10-27T18:04:06.924Z,99178.44
2022-10-27T18:06:34.037Z,99182.66
2022-10-27T18:09:02.288Z,99183.50
2022-10-27T18:11:32.027Z,99177.41
2022-10-27T18:14:03.362Z,99184.72
2022-10-27T18:16:32.699Z,99177.97
2022-10-27T18:19:03.822Z,99184.13
2022-10-27T18:21:32.187Z,99184.81
2022-10-27T18:24:00.292Z,99197.09
2022-10-27T18:26:28.234Z,99189.19
2022-10-27T18:28:54.950Z,99183.13
2022-10-27T18:31:24.210Z,99181.25
2022-10-27T18:33:50.989Z,99172.91
2022-10-27T18:36:20.285Z,99174.41
2022-10-27T18:38:47.323Z,99179.31
2022-10-27T18:41:16.021Z,99181.03
2022-10-27T18:43:46.793Z,99179.84
2022-10-27T18:46:14.606Z,99173.13
2022-10-27T18:48:41.240Z,99187.41
2022-10-27T18:51:12.726Z,99180.16
2022-10-27T18:53:39.430Z,99179.16
2022-10-27T18:56:08.313Z,99164.88
2022-10-27T18:58:36.310Z,99166.41
2022-10-27T19:01:11.529Z,99176.31
2022-10-27T19:03:38.779Z,99174.28
2022-10-27T19:06:07.705Z,99175.13
2022-10-27T19:08:34.726Z,99181.66
2022-10-27T19:11:06.713Z,99188.41
2022-10-27T19:13:34.864Z,99178.66
2022-10-27T19:16:06.846Z,99183.53
2022-10-27T19:18:33.771Z,99194.28
2022-10-27T19:21:02.434Z,99187.72
2022-10-27T19:23:30.017Z,99180.50
2022-10-27T19:26:05.089Z,99181.16
2022-10-27T19:28:32.478Z,99176.66
2022-10-27T19:30:58.864Z,99177.47
2022-10-27T19:33:25.701Z,99184.38
2022-10-27T19:35:53.685Z,99185.03
2022-10-27T19:38:21.351Z,99188.34
2022-10-27T19:40:47.879Z,99183.81
2022-10-27T19:43:14.411Z,99186.34
2022-10-27T19:45:48.142Z,99176.63
2022-10-27T19:48:17.412Z,99180.66
2022-10-27T19:50:44.263Z,99179.44
2022-10-27T19:53:11.499Z,99181.34
2022-10-27T19:55:38.025Z,99174.59
2022-10-27T19:58:04.534Z,99176.94
2022-10-27T20:00:31.016Z,99179.31
2022-10-27T20:02:58.046Z,99179.47
2022-10-27T20:05:24.509Z,99179.63
2022-10-27T20:07:51.910Z,99172.72
2022-10-27T20:10:19.247Z,99169.19
2022-10-27T20:12:45.755Z,99175.00
2022-10-27T20:15:12.772Z,99167.44
2022-10-27T20:17:39.374Z,99167.28
2022-10-27T20:20:07.123Z,99172.84
2022-10-27T20:22:33.516Z,99172.31
2022-10-27T20:24:59.889Z,99171.63
2022-10-27T20:27:29.282Z,99171.81
2022-10-27T20:29:55.780Z,99171.56
2022-10-27T20:32:23.752Z,99163.94
2022-10-27T20:34:50.216Z,99168.25
2022-10-27T20:37:16.686Z,99165.69
2022-10-27T20:39:43.105Z,99166.94
2022-10-27T20:42:09.565Z,99168.97
2022-10-27T20:44:35.937Z,99165.59
2022-10-27T20:47:02.424Z,99165.03
2022-10-27T20:49:28.779Z,99166.16
2022-10-27T20:51:55.177Z,99171.41
2022-10-27T20:54:21.529Z,99160.59
2022-10-27T20:56:49.109Z,99164.28
2022-10-27T20:59:19.981Z,99175.75
2022-10-27T21:01:49.165Z,99169.25
2022-10-27T21:04:21.934Z,99169.78
2022-10-27T21:06:50.447Z,99158.53
2022-10-27T21:09:19.056Z,99168.47
2022-10-27T21:11:46.815Z,99159.94
2022-10-27T21:14:13.608Z,99160.94
2022-10-27T21:16:40.511Z,99158.53
2022-10-27T21:19:09.325Z,99154.78
2022-10-27T21:21:36.321Z,99157.84
2022-10-27T21:24:03.950Z,99161.69
2022-10-27T21:26:30.453Z,99165.94
2022-10-27T21:28:58.466Z,99158.59
2022-10-27T21:31:28.620Z,99167.06
2022-10-27T21:33:55.776Z,99168.78
2022-10-27T21:36:22.348Z,99159.16
2022-10-27T21:38:50.436Z,99158.16
2022-10-27T21:41:19.765Z,99156.69
2022-10-27T21:43:49.600Z,99164.56
2022-10-27T21:46:19.218Z,99162.72
2022-10-27T21:48:46.073Z,99163.31
2022-10-27T21:51:14.189Z,99166.56
2022-10-27T21:53:41.346Z,99164.56
2022-10-27T21:56:09.967Z,99165.72
2022-10-27T21:58:37.043Z,99159.41
2022-10-27T22:01:22.250Z,99158.44
2022-10-27T22:03:48.779Z,99154.41
2022-10-27T22:06:16.555Z,99159.91
2022-10-27T22:08:43.729Z,99157.97
2022-10-27T22:11:15.126Z,99168.03
2022-10-27T22:13:42.051Z,99160.56
2022-10-27T22:16:10.804Z,99162.34
2022-10-27T22:18:38.135Z,99159.44
2022-10-27T22:21:05.923Z,99156.91
2022-10-27T22:23:33.688Z,99159.31
2022-10-27T22:26:26.938Z,99159.06
2022-10-27T22:28:54.015Z,99149.09
2022-10-27T22:31:23.441Z,99147.53
2022-10-27T22:33:51.130Z,99145.25
2022-10-27T22:36:19.087Z,99143.31
2022-10-27T22:38:46.012Z,99143.78
2022-10-27T22:41:16.249Z,99143.47
2022-10-27T22:43:44.132Z,99145.19
2022-10-27T22:46:16.698Z,99150.25
2022-10-27T22:48:43.091Z,99145.75
2022-10-27T22:51:14.250Z,99140.41
2022-10-27T22:53:42.073Z,99140.97
2022-10-27T22:56:12.931Z,99138.44
2022-10-27T22:58:39.807Z,99152.09
2022-10-27T23:01:08.785Z,99145.78
2022-10-27T23:03:35.875Z,99143.38
2022-10-27T23:06:03.287Z,99148.16
2022-10-27T23:08:30.289Z,99148.72
2022-10-27T23:10:58.650Z,99148.72
2022-10-27T23:13:26.509Z,99147.59
2022-10-27T23:15:54.661Z,99150.41
2022-10-27T23:18:21.253Z,99145.81
2022-10-27T23:20:47.701Z,99145.50
2022-10-27T23:23:14.133Z,99144.66
2022-10-27T23:25:40.565Z,99140.00
2022-10-27T23:28:07.206Z,99134.81
2022-10-27T23:30:33.967Z,99123.56
2022-10-27T23:33:00.416Z,99133.69
2022-10-27T23:35:26.762Z,99128.66
2022-10-27T23:37:53.388Z,99141.31
2022-10-27T23:40:19.884Z,99129.22
2022-10-27T23:42:46.398Z,99132.16
2022-10-27T23:45:12.899Z,99134.56
2022-10-27T23:47:39.336Z,99139.03
2022-10-27T23:50:06.096Z,99140.59
2022-10-27T23:52:32.635Z,99151.13
2022-10-27T23:54:59.262Z,99146.38
2022-10-27T23:57:25.649Z,99145.66
2022-10-27T23:59:52.152Z,99135.25
